Time;durP1;ratioP1;P1;durP2;ratioP2;P2;SDS_P1;SDS_P2;PMS_P1;PMS_P2;Temp;Humidity;BMP_temperature;BMP_pressure;BME280_temperature;BME280_humidity;BME280_pressure;Samples;Min_cycle;Max_cycle;Signal;HPM_P1;HPM_P2
2023/11/03 00:02:20;;;;;;;22.40;14.00;;;;;;;11.29;63.44;92988.13;4953939;28;20560;-73
2023/11/03 00:04:46;;;;;;;18.95;12.70;;;;;;;11.38;63.20;92991.41;4951652;28;20719;-73
2023/11/03 00:07:13;;;;;;;20.67;13.25;;;;;;;11.46;63.15;92999.25;4949503;28;20494;-73
2023/11/03 00:09:38;;;;;;;20.63;13.20;;;;;;;11.56;62.66;93003.38;4952975;28;20097;-72
2023/11/03 00:12:06;;;;;;;19.85;12.52;;;;;;;11.50;62.22;92980.72;4950086;28;20593;-74
2023/11/03 00:14:34;;;;;;;15.15;10.65;;;;;;;11.40;62.51;92983.84;4956633;28;20145;-73
2023/11/03 00:16:59;;;;;;;12.27;8.77;;;;;;;11.35;62.86;92968.13;4947974;28;20031;-73
2023/11/03 00:19:25;;;;;;;13.57;8.52;;;;;;;11.27;62.90;92964.50;4951097;28;20148;-73
2023/11/03 00:21:51;;;;;;;16.05;8.75;;;;;;;11.43;61.62;92986.63;4948082;28;22547;-73
2023/11/03 00:24:17;;;;;;;15.48;8.15;;;;;;;11.28;62.47;92989.22;4949564;28;20070;-73
2023/11/03 00:26:43;;;;;;;14.82;8.77;;;;;;;11.31;62.24;92976.00;4947523;28;20122;-73
2023/11/03 00:29:09;;;;;;;19.73;11.07;;;;;;;11.34;60.83;92977.25;4945074;28;20086;-72
2023/11/03 00:31:34;;;;;;;14.38;9.55;;;;;;;11.21;62.04;92986.34;4948455;28;20039;-73
2023/11/03 00:34:00;;;;;;;15.80;9.60;;;;;;;11.01;61.65;92972.84;4948800;28;20035;-74
2023/11/03 00:36:25;;;;;;;19.60;12.18;;;;;;;11.05;61.43;92979.06;4963789;28;20054;-73
2023/11/03 00:38:50;;;;;;;17.40;12.88;;;;;;;11.24;62.21;93013.09;4950374;28;20061;-73
2023/11/03 00:41:16;;;;;;;26.27;13.95;;;;;;;11.00;63.19;93011.22;4946354;28;20042;-73
2023/11/03 00:43:43;;;;;;;24.70;16.40;;;;;;;10.95;64.28;93014.13;4948922;28;20034;-73
2023/11/03 00:46:09;;;;;;;22.98;15.15;;;;;;;10.90;63.84;93003.72;4947986;28;20058;-73
2023/11/03 00:48:34;;;;;;;33.22;18.92;;;;;;;10.96;64.20;92991.72;4950756;28;20102;-72
2023/11/03 00:50:59;;;;;;;41.22;22.75;;;;;;;11.06;64.08;93001.13;4951600;28;20047;-73
2023/11/03 00:53:25;;;;;;;32.15;18.85;;;;;;;11.12;63.73;92994.47;4948676;28;20030;-73
2023/11/03 00:55:50;;;;;;;35.38;20.55;;;;;;;11.05;64.17;93000.34;4954345;28;20089;-73
2023/11/03 00:58:15;;;;;;;39.53;21.73;;;;;;;11.06;64.76;93006.44;4948202;28;20038;-73
2023/11/03 01:00:41;;;;;;;37.90;20.67;;;;;;;11.20;63.17;93028.16;4947644;28;20031;-72
2023/11/03 01:03:09;;;;;;;39.67;21.52;;;;;;;10.97;63.42;93003.13;4948727;28;20038;-72
2023/11/03 01:05:34;;;;;;;31.63;21.48;;;;;;;11.09;62.83;93021.75;4950364;28;20047;-73
2023/11/03 01:08:00;;;;;;;33.38;21.98;;;;;;;11.18;62.68;93001.13;4949867;28;20038;-73
2023/11/03 01:10:27;;;;;;;35.42;21.83;;;;;;;11.22;62.25;92995.88;4949177;28;20038;-74
2023/11/03 01:12:54;;;;;;;30.80;19.60;;;;;;;11.18;62.08;92983.25;4949112;28;20329;-73
2023/11/03 01:15:22;;;;;;;34.17;20.58;;;;;;;11.27;61.07;93011.63;4951842;28;20122;-73
2023/11/03 01:17:49;;;;;;;32.70;18.88;;;;;;;11.07;61.97;93019.41;4949504;28;20265;-74
2023/11/03 01:20:19;;;;;;;27.25;17.92;;;;;;;10.97;62.67;93029.72;4947756;28;20089;-72
2023/11/03 01:22:50;;;;;;;38.78;21.10;;;;;;;11.03;63.73;93052.34;4950208;28;20046;-74
2023/11/03 01:25:16;;;;;;;33.50;21.45;;;;;;;10.97;64.18;93030.50;4943703;28;20483;-73
2023/11/03 01:27:44;;;;;;;35.38;21.17;;;;;;;10.99;63.99;93036.28;4949271;28;20031;-73
2023/11/03 01:30:14;;;;;;;37.15;22.10;;;;;;;11.05;64.45;93028.88;4949980;28;20067;-74
2023/11/03 01:32:39;;;;;;;47.88;26.75;;;;;;;11.16;64.20;93025.41;4949770;28;20089;-72
2023/11/03 01:35:06;;;;;;;35.35;22.42;;;;;;;11.23;63.19;93032.03;4949478;28;20035;-73
2023/11/03 01:37:33;;;;;;;38.25;22.70;;;;;;;11.22;63.57;93041.13;4947946;28;20860;-73
2023/11/03 01:39:58;;;;;;;60.40;22.15;;;;;;;11.16;63.45;93033.38;4949530;28;20029;-72
2023/11/03 01:42:25;;;;;;;32.13;20.23;;;;;;;11.18;63.35;93041.81;4948837;28;20031;-73
2023/11/03 01:44:51;;;;;;;36.97;22.42;;;;;;;11.24;63.09;93033.59;4947791;28;20524;-73
2023/11/03 01:47:17;;;;;;;34.97;21.58;;;;;;;11.17;62.41;93040.25;4945755;28;20035;-74
2023/11/03 01:49:44;;;;;;;35.30;21.20;;;;;;;11.32;62.66;93025.47;4947774;28;20035;-73
2023/11/03 01:52:10;;;;;;;40.35;23.42;;;;;;;11.34;62.51;93017.94;4947971;28;20490;-72
2023/11/03 01:54:37;;;;;;;40.10;22.38;;;;;;;11.21;62.01;93003.09;4946598;28;20268;-73
2023/11/03 01:57:03;;;;;;;28.70;19.52;;;;;;;11.28;61.92;93013.19;4947851;28;20027;-73
2023/11/03 01:59:29;;;;;;;30.30;18.38;;;;;;;11.21;61.50;92992.44;4949290;28;20089;-73
2023/11/03 02:01:56;;;;;;;26.25;17.65;;;;;;;11.20;61.29;92990.91;4948039;28;20086;-73
2023/11/03 02:04:21;;;;;;;23.10;14.63;;;;;;;11.16;60.85;93017.41;4947450;28;20066;-73
2023/11/03 02:06:46;;;;;;;24.92;13.65;;;;;;;11.20;61.40;92992.81;4949466;28;20022;-73
2023/11/03 02:09:13;;;;;;;23.70;13.98;;;;;;;11.05;61.45;92987.03;4948228;28;20297;-73
2023/11/03 02:11:43;;;;;;;22.17;13.32;;;;;;;11.02;61.29;92976.28;4948153;28;20027;-73
2023/11/03 02:14:08;;;;;;;19.98;13.27;;;;;;;11.09;61.39;92953.34;4946975;28;20522;-72
2023/11/03 02:16:35;;;;;;;21.73;13.50;;;;;;;11.07;62.26;92982.16;4948075;28;20054;-73
2023/11/03 02:19:03;;;;;;;25.70;15.13;;;;;;;11.02;62.79;92979.75;4948850;28;20030;-72
2023/11/03 02:21:33;;;;;;;23.30;14.85;;;;;;;10.88;62.49;92968.69;4949986;28;20129;-74
2023/11/03 02:23:59;;;;;;;25.70;16.50;;;;;;;10.98;63.15;92978.88;4951846;28;20035;-73
2023/11/03 02:26:24;;;;;;;28.35;15.63;;;;;;;11.06;62.79;92969.97;4944283;28;20045;-73
2023/11/03 02:28:49;;;;;;;23.92;14.40;;;;;;;10.92;62.60;92937.63;4947842;28;20055;-72
2023/11/03 02:31:15;;;;;;;26.15;16.23;;;;;;;11.05;62.62;92957.78;4946996;28;20030;-73
2023/11/03 02:33:40;;;;;;;25.95;17.27;;;;;;;10.69;63.73;92921.38;4946635;28;20545;-73
2023/11/03 02:36:06;;;;;;;29.73;18.00;;;;;;;10.61;65.97;92956.09;4948496;28;20045;-73
2023/11/03 02:38:32;;;;;;;29.63;17.70;;;;;;;10.69;65.13;92966.59;4947852;28;20031;-73
2023/11/03 02:40:57;;;;;;;26.73;17.52;;;;;;;10.96;64.62;92957.13;4947006;28;20441;-74
2023/11/03 02:43:22;;;;;;;30.75;18.52;;;;;;;11.00;64.48;92950.03;4942110;28;20068;-72
2023/11/03 02:45:49;;;;;;;36.42;20.48;;;;;;;11.04;64.60;92966.88;4948485;28;20103;-73
2023/11/03 02:48:16;;;;;;;32.55;18.38;;;;;;;11.12;64.60;92965.97;4947198;28;20520;-73
2023/11/03 02:50:41;;;;;;;33.05;21.27;;;;;;;11.22;64.39;92955.97;4948589;28;20035;-73
2023/11/03 02:53:07;;;;;;;27.95;18.33;;;;;;;11.30;63.29;92979.00;4962520;28;20042;-73
2023/11/03 02:55:34;;;;;;;31.23;20.52;;;;;;;11.24;63.59;92959.84;4944787;28;20677;-73
2023/11/03 02:57:59;;;;;;;35.88;18.63;;;;;;;11.01;64.85;92980.06;4948875;28;20031;-74
2023/11/03 03:00:25;;;;;;;41.05;22.10;;;;;;;10.99;65.67;92956.47;4946816;28;20049;-73
2023/11/03 03:02:52;;;;;;;33.13;19.15;;;;;;;11.18;64.67;92954.00;4952122;28;20089;-73
2023/11/03 03:05:17;;;;;;;27.15;18.05;;;;;;;10.97;65.19;92940.06;4951259;28;20086;-73
2023/11/03 03:07:45;;;;;;;30.27;19.10;;;;;;;10.96;65.57;92949.16;4951620;28;20122;-72
2023/11/03 03:10:11;;;;;;;34.05;20.13;;;;;;;11.23;65.08;92958.31;4948595;28;20115;-73
2023/11/03 03:12:36;;;;;;;35.47;20.98;;;;;;;11.27;64.57;92953.06;4950546;28;20134;-72
2023/11/03 03:15:03;;;;;;;31.75;20.65;;;;;;;11.30;64.23;92941.75;4951535;28;20118;-73
2023/11/03 03:17:30;;;;;;;30.70;19.42;;;;;;;11.07;64.98;92926.28;4949573;28;20118;-73
2023/11/03 03:19:55;;;;;;;33.33;19.17;;;;;;;11.31;63.37;92959.25;4952452;28;20062;-72
2023/11/03 03:22:21;;;;;;;35.30;21.05;;;;;;;11.24;63.73;92964.41;4950515;28;20027;-73
2023/11/03 03:24:46;;;;;;;29.35;18.45;;;;;;;11.22;63.63;92958.63;4953297;28;20042;-72
2023/11/03 03:27:11;;;;;;;31.13;18.95;;;;;;;11.12;63.31;92947.34;4949510;28;20564;-73
2023/11/03 03:29:37;;;;;;;30.77;19.55;;;;;;;10.93;64.19;92936.53;4951000;28;20047;-73
2023/11/03 03:32:03;;;;;;;33.53;20.90;;;;;;;10.96;65.46;92948.38;4950154;28;20035;-73
2023/11/03 03:34:29;;;;;;;35.58;20.90;;;;;;;10.98;65.44;92946.94;4949816;28;20043;-73
2023/11/03 03:36:54;;;;;;;34.75;20.27;;;;;;;11.11;64.69;92942.34;4952963;28;20023;-73
2023/11/03 03:39:20;;;;;;;29.75;19.77;;;;;;;11.25;64.21;92950.00;4951827;28;20042;-73
2023/11/03 03:41:50;;;;;;;40.95;22.83;;;;;;;11.27;64.28;92956.50;4949372;28;20039;-72
2023/11/03 03:44:15;;;;;;;32.50;19.88;;;;;;;11.18;63.82;92964.63;4950675;28;20039;-73
2023/11/03 03:46:40;;;;;;;35.63;22.40;;;;;;;11.26;63.78;92967.47;4950407;28;20074;-73
2023/11/03 03:49:06;;;;;;;36.78;22.00;;;;;;;11.32;64.03;92950.16;4952448;28;20031;-73
2023/11/03 03:51:31;;;;;;;30.38;20.02;;;;;;;11.43;63.37;92937.94;4949022;28;20026;-72
2023/11/03 03:53:56;;;;;;;30.38;19.45;;;;;;;11.37;63.29;92932.06;4951064;28;20070;-74
2023/11/03 03:56:25;;;;;;;35.83;21.13;;;;;;;11.33;62.98;92903.81;4950609;28;20039;-73
2023/11/03 03:58:54;;;;;;;37.72;20.95;;;;;;;11.34;63.61;92902.72;4952121;28;20035;-73
2023/11/03 04:01:21;;;;;;;29.02;18.42;;;;;;;11.43;62.94;92913.97;4948785;28;20034;-73
2023/11/03 04:03:47;;;;;;;37.00;20.35;;;;;;;11.45;63.50;92917.06;4951399;28;20431;-73
2023/11/03 04:06:13;;;;;;;27.35;17.38;;;;;;;11.14;62.70;92867.97;4950565;28;20042;-72
2023/11/03 04:08:38;;;;;;;29.63;17.95;;;;;;;11.41;62.53;92886.91;4952258;28;20031;-73
2023/11/03 04:11:04;;;;;;;31.73;18.58;;;;;;;11.53;61.58;92898.31;4966423;28;20043;-73
2023/11/03 04:13:29;;;;;;;31.85;18.05;;;;;;;11.35;61.79;92901.56;4950105;28;20555;-73
2023/11/03 04:15:55;;;;;;;31.67;19.23;;;;;;;11.27;62.25;92878.53;4950092;28;20454;-72
2023/11/03 04:18:21;;;;;;;31.75;20.40;;;;;;;11.31;63.10;92869.53;4949578;28;20071;-72
2023/11/03 04:20:47;;;;;;;40.28;19.80;;;;;;;11.36;63.11;92882.59;4948602;28;20075;-73
2023/11/03 04:23:13;;;;;;;26.45;16.65;;;;;;;11.36;62.43;92871.97;4949681;28;20253;-73
2023/11/03 04:25:39;;;;;;;29.17;16.25;;;;;;;11.29;62.89;92861.13;4947509;28;20031;-73
2023/11/03 04:28:09;;;;;;;21.95;14.30;;;;;;;11.34;62.82;92862.78;4952662;28;20474;-72
2023/11/03 04:30:35;;;;;;;30.48;16.63;;;;;;;11.35;62.42;92875.72;4963950;28;20028;-72
2023/11/03 04:33:04;;;;;;;23.80;16.45;;;;;;;11.18;62.45;92882.13;4950829;28;20038;-74
2023/11/03 04:35:29;;;;;;;30.27;18.10;;;;;;;11.14;63.49;92907.88;4949086;28;20487;-73
2023/11/03 04:37:54;;;;;;;27.90;17.63;;;;;;;11.14;63.51;92907.88;4951337;28;20157;-73
2023/11/03 04:40:21;;;;;;;28.17;17.70;;;;;;;11.11;63.35;92908.53;4949223;28;20038;-72
2023/11/03 04:42:49;;;;;;;34.58;21.00;;;;;;;11.21;63.68;92901.97;4949892;28;20027;-72
2023/11/03 04:45:21;;;;;;;33.13;18.95;;;;;;;11.17;63.73;92890.44;4946279;28;20042;-72
2023/11/03 04:47:46;;;;;;;33.10;19.00;;;;;;;11.15;63.55;92892.66;4949526;28;20615;-73
2023/11/03 04:50:11;;;;;;;28.45;18.63;;;;;;;11.17;63.29;92901.09;4949043;28;20140;-72
2023/11/03 04:52:40;;;;;;;28.63;18.67;;;;;;;11.19;63.34;92904.19;4948252;28;20585;-73
2023/11/03 04:55:08;;;;;;;30.38;18.55;;;;;;;11.26;63.04;92903.59;4947646;28;20022;-74
2023/11/03 04:57:37;;;;;;;33.97;19.10;;;;;;;11.23;63.22;92888.31;4947334;28;20027;-74
2023/11/03 05:00:09;;;;;;;30.48;18.55;;;;;;;11.22;63.65;92895.53;4948468;28;20066;-73
2023/11/03 05:02:38;;;;;;;31.98;19.80;;;;;;;11.14;64.08;92870.63;4948000;28;20059;-73
2023/11/03 05:05:04;;;;;;;31.88;18.35;;;;;;;11.16;64.19;92859.63;4949590;28;20075;-73
2023/11/03 05:07:32;;;;;;;26.38;17.42;;;;;;;11.33;63.22;92861.22;4949408;28;20494;-72
2023/11/03 05:09:57;;;;;;;35.40;19.92;;;;;;;11.28;63.50;92869.44;4949699;28;20019;-72
2023/11/03 05:12:23;;;;;;;32.03;18.63;;;;;;;11.21;63.72;92874.56;4949555;28;20038;-72
2023/11/03 05:14:48;;;;;;;31.88;18.92;;;;;;;11.00;64.94;92875.53;4948928;28;20086;-72
2023/11/03 05:17:13;;;;;;;31.75;19.20;;;;;;;11.06;64.49;92868.88;4951178;28;20105;-73
2023/11/03 05:19:39;;;;;;;30.10;18.92;;;;;;;11.24;64.22;92873.91;4950220;28;20047;-73
2023/11/03 05:22:04;;;;;;;28.73;18.77;;;;;;;11.33;64.03;92835.38;4948416;28;20069;-73
2023/11/03 05:24:29;;;;;;;30.35;19.25;;;;;;;11.38;63.91;92832.47;4944468;28;20469;-73
2023/11/03 05:26:55;;;;;;;30.00;18.15;;;;;;;11.29;64.49;92831.88;4967058;28;20469;-72
2023/11/03 05:29:23;;;;;;;28.83;18.10;;;;;;;11.40;64.21;92856.84;4954648;28;20430;-74
2023/11/03 05:31:52;;;;;;;27.45;18.08;;;;;;;11.43;64.20;92850.09;4945723;28;20036;-73
2023/11/03 05:34:18;;;;;;;35.05;20.35;;;;;;;11.11;65.44;92850.00;4947505;28;20066;-73
2023/11/03 05:36:45;;;;;;;41.30;21.20;;;;;;;11.04;65.71;92825.88;4948173;28;20054;-73
2023/11/03 05:39:12;;;;;;;36.08;19.65;;;;;;;11.10;65.65;92829.06;4951460;28;20035;-74
2023/11/03 05:41:37;;;;;;;35.78;20.80;;;;;;;11.23;65.43;92827.88;4948395;28;20509;-74
2023/11/03 05:44:02;;;;;;;29.75;17.15;;;;;;;11.34;65.14;92820.19;4945729;28;20045;-73
2023/11/03 05:46:28;;;;;;;33.00;19.70;;;;;;;11.42;64.81;92816.59;4953711;28;20035;-74
2023/11/03 05:48:54;;;;;;;38.63;19.30;;;;;;;11.41;64.56;92836.31;4963995;28;20116;-73
2023/11/03 05:51:23;;;;;;;26.00;16.20;;;;;;;11.47;64.66;92833.09;4947643;28;20047;-73
2023/11/03 05:53:50;;;;;;;29.83;16.02;;;;;;;11.42;64.59;92827.22;4958355;28;20039;-74
2023/11/03 05:56:15;;;;;;;29.48;17.52;;;;;;;11.43;64.38;92821.56;4947571;28;20050;-73
2023/11/03 05:58:41;;;;;;;33.00;18.23;;;;;;;11.30;64.13;92814.75;4946200;28;20397;-73
2023/11/03 06:01:07;;;;;;;33.83;20.20;;;;;;;11.35;64.86;92821.72;4961931;28;20515;-73
2023/11/03 06:03:36;;;;;;;33.72;18.80;;;;;;;11.27;65.05;92810.13;4947670;28;20994;-73
2023/11/03 06:06:02;;;;;;;30.92;17.85;;;;;;;11.37;64.98;92808.84;4947591;28;20043;-73
2023/11/03 06:08:28;;;;;;;29.17;18.45;;;;;;;11.46;65.02;92818.22;4948834;28;20042;-73
2023/11/03 06:10:54;;;;;;;28.48;17.17;;;;;;;11.47;65.18;92822.44;4945472;28;20035;-73
2023/11/03 06:13:19;;;;;;;30.45;18.52;;;;;;;11.38;64.92;92815.72;4962169;28;20752;-73
2023/11/03 06:15:45;;;;;;;28.13;17.60;;;;;;;11.53;64.38;92838.97;4946803;28;20026;-73
2023/11/03 06:18:11;;;;;;;28.73;19.65;;;;;;;11.53;64.91;92833.66;4949764;28;20090;-74
2023/11/03 06:20:36;;;;;;;27.25;18.10;;;;;;;11.57;65.00;92835.28;4941214;28;20035;-73
2023/11/03 06:23:01;;;;;;;35.55;21.35;;;;;;;11.54;65.26;92825.28;4946764;28;20039;-73
2023/11/03 06:25:29;;;;;;;37.17;20.02;;;;;;;11.52;65.18;92805.47;4947158;28;20833;-73
2023/11/03 06:27:55;;;;;;;35.83;21.33;;;;;;;11.65;65.24;92833.56;4949683;28;20085;-73
2023/11/03 06:30:20;;;;;;;35.35;20.33;;;;;;;11.69;65.25;92809.66;4947283;28;20042;-73
2023/11/03 06:32:46;;;;;;;35.40;19.27;;;;;;;11.66;64.88;92792.50;4946749;28;20533;-73
2023/11/03 06:35:11;;;;;;;31.40;19.73;;;;;;;11.71;65.15;92800.22;4945975;28;20037;-73
2023/11/03 06:37:37;;;;;;;30.27;18.45;;;;;;;11.82;64.89;92809.25;4948034;28;20515;-73
2023/11/03 06:40:02;;;;;;;33.20;19.83;;;;;;;11.82;65.11;92789.84;4947455;28;20537;-73
2023/11/03 06:42:28;;;;;;;27.88;18.77;;;;;;;11.88;64.90;92796.47;4946227;28;20034;-73
2023/11/03 06:44:53;;;;;;;28.95;18.38;;;;;;;11.66;65.17;92767.75;4951700;28;20047;-73
2023/11/03 06:47:19;;;;;;;33.28;20.98;;;;;;;11.92;65.39;92792.75;4947474;28;21428;-74
2023/11/03 06:49:44;;;;;;;31.58;18.70;;;;;;;12.06;65.73;92796.84;4948360;28;20038;-73
2023/11/03 06:52:11;;;;;;;39.28;22.77;;;;;;;12.09;64.99;92804.16;4947319;28;20046;-73
2023/11/03 06:54:36;;;;;;;28.52;19.15;;;;;;;11.97;65.72;92805.81;4945271;28;20062;-73
2023/11/03 06:57:06;;;;;;;37.20;21.42;;;;;;;11.96;65.99;92806.94;4945291;28;20609;-73
2023/11/03 06:59:34;;;;;;;45.75;20.85;;;;;;;11.94;66.92;92811.81;4946299;28;20031;-74
2023/11/03 07:01:59;;;;;;;38.10;22.38;;;;;;;11.90;66.70;92808.28;4945516;28;20445;-74
2023/11/03 07:04:25;;;;;;;37.42;22.02;;;;;;;11.95;66.30;92797.38;4947409;28;20524;-73
2023/11/03 07:06:51;;;;;;;34.67;20.63;;;;;;;11.91;66.47;92791.19;4948428;28;20621;-73
2023/11/03 07:09:17;;;;;;;33.78;20.13;;;;;;;12.06;66.58;92797.63;4946475;28;20520;-74
2023/11/03 07:11:42;;;;;;;38.72;20.55;;;;;;;12.16;66.45;92761.69;4949712;28;20468;-73
2023/11/03 07:14:07;;;;;;;29.40;18.90;;;;;;;12.38;65.79;92766.34;4946487;28;20162;-73
2023/11/03 07:16:33;;;;;;;35.67;19.17;;;;;;;12.51;65.35;92762.44;4945581;28;20050;-74
2023/11/03 07:18:58;;;;;;;27.40;19.50;;;;;;;12.55;64.78;92765.94;4948412;28;20505;-73
2023/11/03 07:21:24;;;;;;;31.13;19.00;;;;;;;12.54;65.93;92779.63;4947914;28;20063;-73
2023/11/03 07:23:49;;;;;;;31.38;19.38;;;;;;;12.60;66.45;92781.69;4940791;28;20043;-74
2023/11/03 07:26:15;;;;;;;26.73;18.27;;;;;;;12.58;66.21;92746.59;4947934;28;20122;-73
2023/11/03 07:28:42;;;;;;;34.25;17.70;;;;;;;12.70;66.33;92778.47;4950324;28;20406;-74
2023/11/03 07:31:11;;;;;;;30.60;18.88;;;;;;;12.70;65.71;92753.69;4946652;28;20031;-73
2023/11/03 07:33:38;;;;;;;39.75;21.30;;;;;;;12.73;65.45;92782.31;4944969;28;20031;-74
2023/11/03 07:36:05;;;;;;;35.33;20.92;;;;;;;12.76;64.68;92790.41;4948060;28;20521;-72
2023/11/03 07:38:31;;;;;;;53.63;23.75;;;;;;;12.56;65.16;92786.16;4946214;28;20131;-73
2023/11/03 07:40:57;;;;;;;40.58;23.05;;;;;;;12.36;65.61;92773.94;4947550;28;20508;-73
2023/11/03 07:43:22;;;;;;;38.17;22.13;;;;;;;12.31;66.30;92793.63;4945176;28;20087;-73
2023/11/03 07:45:50;;;;;;;38.35;21.95;;;;;;;12.30;66.03;92777.97;4953445;28;20478;-73
2023/11/03 07:48:16;;;;;;;39.65;23.85;;;;;;;12.27;66.62;92794.69;4947544;28;20045;-73
2023/11/03 07:50:41;;;;;;;37.58;20.13;;;;;;;12.35;66.30;92780.38;4951193;28;20038;-73
2023/11/03 07:53:07;;;;;;;40.17;21.52;;;;;;;12.32;65.36;92735.75;4952201;28;20406;-75
2023/11/03 07:55:34;;;;;;;48.05;23.45;;;;;;;12.47;65.13;92726.91;4950112;28;20785;-73
2023/11/03 07:57:59;;;;;;;42.20;21.95;;;;;;;12.67;65.24;92744.50;4950223;28;20030;-73
2023/11/03 08:00:25;;;;;;;36.00;20.85;;;;;;;12.62;65.34;92778.66;4955517;28;20039;-73
2023/11/03 08:02:50;;;;;;;46.03;24.40;;;;;;;12.16;66.96;92764.34;4949123;28;20031;-73
2023/11/03 08:05:15;;;;;;;39.50;24.85;;;;;;;12.24;67.27;92771.38;4955516;28;20062;-73
2023/11/03 08:07:41;;;;;;;44.30;25.52;;;;;;;12.15;66.89;92742.25;4949113;28;20492;-74
2023/11/03 08:10:11;;;;;;;45.75;26.17;;;;;;;12.17;66.06;92749.91;4950550;28;20051;-73
2023/11/03 08:12:38;;;;;;;49.33;28.50;;;;;;;12.03;66.51;92751.13;4951306;28;20085;-73
2023/11/03 08:15:06;;;;;;;46.63;26.85;;;;;;;12.16;66.47;92783.00;4948534;28;20039;-73
2023/11/03 08:17:32;;;;;;;41.17;24.80;;;;;;;12.19;66.28;92774.28;4948416;28;20047;-73
2023/11/03 08:19:57;;;;;;;49.60;26.73;;;;;;;12.24;66.10;92782.03;4949212;28;20038;-72
2023/11/03 08:22:23;;;;;;;45.03;28.52;;;;;;;12.23;66.24;92764.47;4947407;28;21035;-74
2023/11/03 08:24:49;;;;;;;47.28;26.95;;;;;;;12.15;66.24;92757.47;4945900;28;20749;-73
2023/11/03 08:27:14;;;;;;;37.70;24.27;;;;;;;12.12;66.00;92742.94;4944958;28;20584;-73
2023/11/03 08:29:40;;;;;;;46.88;26.67;;;;;;;12.19;65.78;92763.63;4949717;28;20031;-73
2023/11/03 08:32:07;;;;;;;48.17;26.88;;;;;;;12.18;66.33;92762.09;4947196;28;20093;-73
2023/11/03 08:34:33;;;;;;;42.75;26.35;;;;;;;12.12;66.50;92752.84;4946100;28;21137;-74
2023/11/03 08:36:58;;;;;;;42.85;25.55;;;;;;;12.35;66.15;92759.81;4951937;28;20134;-73
2023/11/03 08:39:27;;;;;;;43.60;26.38;;;;;;;12.37;65.53;92746.16;4949766;28;20120;-73
2023/11/03 08:41:52;;;;;;;42.33;25.25;;;;;;;12.40;65.40;92764.88;4946979;28;20549;-73
2023/11/03 08:44:19;;;;;;;37.88;24.60;;;;;;;12.24;65.92;92755.38;4948094;28;20125;-73
2023/11/03 08:46:48;;;;;;;36.83;24.70;;;;;;;12.36;65.98;92758.72;4945472;28;20068;-74
2023/11/03 08:49:14;;;;;;;37.72;22.13;;;;;;;12.37;65.44;92736.22;4949952;28;20027;-74
2023/11/03 08:51:39;;;;;;;36.90;22.23;;;;;;;12.41;65.51;92755.75;4945034;28;20042;-73
2023/11/03 08:54:05;;;;;;;37.38;22.15;;;;;;;12.40;66.03;92753.44;4935371;28;20397;-73
2023/11/03 08:56:31;;;;;;;33.20;21.90;;;;;;;12.47;65.24;92743.69;4939322;28;20353;-72
2023/11/03 08:58:57;;;;;;;34.25;22.65;;;;;;;12.56;64.98;92774.72;4938643;28;20575;-73
2023/11/03 09:01:22;;;;;;;40.05;22.67;;;;;;;12.55;64.76;92755.28;4940007;28;20785;-73
2023/11/03 09:03:47;;;;;;;36.83;21.73;;;;;;;12.51;65.34;92764.34;4942107;28;20015;-74
2023/11/03 09:06:13;;;;;;;35.33;21.70;;;;;;;12.60;65.89;92756.94;4941664;28;20046;-73
2023/11/03 09:08:39;;;;;;;38.65;21.85;;;;;;;12.69;65.22;92766.25;4947723;28;20509;-73
2023/11/03 09:11:04;;;;;;;36.55;22.33;;;;;;;12.70;65.49;92743.03;4947321;28;20484;-73
2023/11/03 09:13:31;;;;;;;39.92;23.48;;;;;;;12.73;65.02;92739.66;4951409;28;20043;-73
2023/11/03 09:15:57;;;;;;;33.35;20.55;;;;;;;12.86;65.66;92759.72;4948794;28;20093;-74
2023/11/03 09:18:24;;;;;;;39.85;20.35;;;;;;;12.95;64.64;92744.28;4948600;28;20039;-74
2023/11/03 09:20:49;;;;;;;35.97;21.42;;;;;;;12.83;64.78;92729.19;4948084;28;20039;-73
2023/11/03 09:23:15;;;;;;;35.17;20.88;;;;;;;12.83;65.33;92726.53;4945209;28;20046;-73
2023/11/03 09:25:40;;;;;;;35.17;20.67;;;;;;;12.56;66.15;92714.16;4948536;28;20047;-73
2023/11/03 09:28:06;;;;;;;35.05;19.63;;;;;;;12.74;66.89;92733.97;4947498;28;20101;-73
2023/11/03 09:30:31;;;;;;;37.38;21.52;;;;;;;12.74;67.13;92720.63;4948973;28;20027;-73
2023/11/03 09:32:57;;;;;;;39.38;22.85;;;;;;;12.95;67.19;92730.16;4948101;28;20039;-73
2023/11/03 09:35:22;;;;;;;39.03;23.73;;;;;;;12.84;68.20;92696.06;4947577;28;20077;-73
2023/11/03 09:37:48;;;;;;;31.48;20.50;;;;;;;12.83;67.72;92680.38;4944587;28;20038;-74
2023/11/03 09:40:17;;;;;;;36.45;22.63;;;;;;;12.98;66.87;92654.72;4937791;28;20062;-74
2023/11/03 09:42:43;;;;;;;34.58;21.02;;;;;;;13.15;66.90;92699.66;4936497;28;20670;-74
2023/11/03 09:45:11;;;;;;;38.45;23.10;;;;;;;13.14;66.81;92676.75;4939471;28;20082;-71
2023/11/03 09:47:38;;;;;;;36.72;21.95;;;;;;;13.21;66.75;92666.16;4937893;28;20605;-73
2023/11/03 09:50:06;;;;;;;49.25;25.88;;;;;;;13.09;66.26;92639.66;4933659;28;20042;-73
2023/11/03 09:52:38;;;;;;;42.38;23.98;;;;;;;13.27;66.39;92624.69;4953351;28;20506;-72
2023/11/03 09:55:08;;;;;;;39.28;21.98;;;;;;;13.78;65.91;92667.09;4937271;28;20572;-73
2023/11/03 09:57:33;;;;;;;36.88;23.17;;;;;;;13.84;64.68;92634.34;4955193;28;20923;-73
2023/11/03 10:00:00;;;;;;;35.78;21.45;;;;;;;13.62;63.96;92606.56;4937485;28;20047;-73
2023/11/03 10:02:26;;;;;;;33.63;20.50;;;;;;;13.80;63.56;92614.03;4940681;28;20477;-71
2023/11/03 10:04:51;;;;;;;30.60;20.45;;;;;;;13.71;63.70;92644.47;4939460;28;20039;-72
2023/11/03 10:07:17;;;;;;;36.15;18.20;;;;;;;13.89;62.42;92623.34;4937301;28;20149;-74
2023/11/03 10:09:43;;;;;;;28.30;18.20;;;;;;;13.75;62.02;92623.91;4937641;28;20553;-72
2023/11/03 10:12:20;;;;;;;26.40;15.68;;;;;;;13.64;63.50;92624.91;4939344;28;20090;-72
2023/11/03 10:14:46;;;;;;;21.35;14.80;;;;;;;13.90;62.26;92608.84;4953837;28;20073;-73
2023/11/03 10:17:14;;;;;;;21.80;14.70;;;;;;;13.77;61.42;92591.50;4937928;28;20065;-73
2023/11/03 10:19:40;;;;;;;21.42;13.90;;;;;;;13.70;62.52;92594.06;4938223;28;20039;-74
2023/11/03 10:22:08;;;;;;;18.80;13.32;;;;;;;14.09;61.82;92595.34;4940234;28;20038;-72
2023/11/03 10:24:34;;;;;;;17.63;12.70;;;;;;;14.30;59.98;92578.78;4938666;28;20029;-73
2023/11/03 10:27:03;;;;;;;21.80;14.55;;;;;;;14.33;60.88;92572.69;4943489;28;20042;-72
2023/11/03 10:29:29;;;;;;;20.50;13.30;;;;;;;14.58;59.97;92599.72;4938731;28;20038;-74
2023/11/03 10:31:54;;;;;;;19.83;13.45;;;;;;;14.38;59.13;92601.00;4935016;28;20051;-73
2023/11/03 10:34:20;;;;;;;21.00;13.80;;;;;;;14.08;60.66;92604.47;4936079;28;20113;-75
2023/11/03 10:36:48;;;;;;;22.08;14.63;;;;;;;14.15;60.88;92577.84;4954253;28;20035;-74
2023/11/03 10:39:17;;;;;;;26.25;14.55;;;;;;;14.16;60.63;92541.19;4939208;28;20042;-73
2023/11/03 10:41:43;;;;;;;20.05;13.88;;;;;;;14.62;60.71;92556.97;4937863;28;20362;-74
2023/11/03 10:44:14;;;;;;;19.33;13.85;;;;;;;14.40;61.07;92562.06;4950665;28;20035;-74
2023/11/03 10:46:49;;;;;;;16.25;11.40;;;;;;;14.59;59.31;92564.59;4936626;28;20105;-73
2023/11/03 10:49:29;;;;;;;17.38;11.73;;;;;;;14.81;59.11;92583.53;4933103;28;20038;-74
2023/11/03 10:52:13;;;;;;;18.88;12.85;;;;;;;14.73;58.98;92557.81;4939960;28;20046;-74
2023/11/03 10:54:53;;;;;;;18.50;12.18;;;;;;;14.28;59.42;92538.25;4939360;28;20437;-74
2023/11/03 10:57:19;;;;;;;20.73;12.05;;;;;;;14.29;60.20;92523.75;4954546;28;20104;-72
2023/11/03 10:59:50;;;;;;;18.33;12.90;;;;;;;14.49;60.16;92548.41;4938257;28;20232;-73
2023/11/03 11:02:29;;;;;;;19.95;12.23;;;;;;;14.76;59.43;92546.41;4938744;28;20037;-74
2023/11/03 11:05:04;;;;;;;21.15;12.30;;;;;;;14.61;59.39;92534.81;4937739;28;20047;-73
2023/11/03 11:07:33;;;;;;;;;;;;;;;14.72;58.82;92524.16;4953611;28;20038;-73
2023/11/03 11:09:58;;;;;;;15.95;11.30;;;;;;;14.52;58.61;92513.66;4937311;28;20573;-74
2023/11/03 11:12:50;;;;;;;16.90;10.80;;;;;;;14.40;58.74;92518.50;4942819;28;20513;-73
2023/11/03 11:15:19;;;;;;;15.45;11.02;;;;;;;14.84;58.33;92510.53;4938529;28;20587;-74